CheckWX is a tool to help pilots better visualize weather data.  It is not intended as a substitute for an official pre-flight weather briefing.

03:01:06 UTC

KSUN TAF
Friedman Memorial Airport
Hailey, Idaho, USA
KSUN 190128Z 1901/2006 25015KT P6SM VCTS FEW060CB FM190200 32010KT P6SM FEW150 FM191800 27015KT P6SM SKC FM192100 29020G30KT P6SM SKC FM200300 31015KT P6SM SKC AMD LTD TO CLD VIS AND WIND 1905/1913

Jun-19@
01:00 UTC

Jun-19 @ 01:00 UTC

Jun-19@
02:00 UTC

Jun-19 @ 02:00 UTC

KSUN 190128Z 1901/2006 25015KT P6SM VCTS FEW060CB

Expired

Wind
  • 250° at 15 KTS
Conditions
Area Thunderstorm
Cloud Levels
  • Few at 6,000' AGL

Jun-19@
02:00 UTC

Jun-19 @ 02:00 UTC

Jun-19@
18:00 UTC

Jun-19 @ 18:00 UTC

FM190200 32010KT P6SM FEW150

From

From Standard forecast or significant change

Wind
  • 320° at 10 KTS
Cloud Levels
  • Few at 15,000' AGL

Jun-19@
18:00 UTC

Jun-19 @ 18:00 UTC

Jun-19@
21:00 UTC

Jun-19 @ 21:00 UTC

FM191800 27015KT P6SM SKC

From

From Standard forecast or significant change

Wind
  • 270° at 15 KTS
Cloud Levels
  • Clear skies

Jun-19@
21:00 UTC

Jun-19 @ 21:00 UTC

Jun-20@
03:00 UTC

Jun-20 @ 03:00 UTC

FM192100 29020G30KT P6SM SKC

From

From Standard forecast or significant change

Wind
  • 290° at 20 KTS
  • {Gusting to 30 KTS
Cloud Levels
  • Clear skies

Jun-20@
03:00 UTC

Jun-20 @ 03:00 UTC

Jun-20@
06:00 UTC

Jun-20 @ 06:00 UTC

FM200300 31015KT P6SM SKC AMD LTD TO CLD VIS AND WIND 1905/1913

From

From Standard forecast or significant change

Wind
  • 310° at 15 KTS
Cloud Levels
  • Clear skies